createdAt,value
2022-11-14T00:01:54.991Z,11.63
2022-11-14T00:04:28.262Z,12.47
2022-11-14T00:06:58.798Z,12.30
2022-11-14T00:09:26.906Z,13.23
2022-11-14T00:11:55.021Z,11.90
2022-11-14T00:14:22.949Z,12.57
2022-11-14T00:16:51.019Z,16.03
2022-11-14T00:19:18.911Z,13.30
2022-11-14T00:21:47.192Z,11.93
2022-11-14T00:24:16.782Z,11.27
2022-11-14T00:26:45.028Z,13.07
2022-11-14T00:29:13.131Z,15.03
2022-11-14T00:31:41.058Z,13.40
2022-11-14T00:34:09.131Z,10.67
2022-11-14T00:36:37.721Z,14.40
2022-11-14T00:39:05.814Z,11.30
2022-11-14T00:41:35.156Z,9.70
2022-11-14T00:44:03.667Z,13.63
2022-11-14T00:46:31.574Z,9.80
2022-11-14T00:48:59.873Z,13.53
2022-11-14T00:51:27.770Z,13.73
2022-11-14T00:53:56.162Z,14.90
2022-11-14T00:56:24.079Z,15.23
2022-11-14T00:58:53.739Z,13.40
2022-11-14T01:01:21.755Z,12.97
2022-11-14T01:03:50.659Z,12.80
2022-11-14T01:06:18.661Z,14.00
2022-11-14T01:08:47.172Z,12.03
2022-11-14T01:11:17.526Z,14.20
2022-11-14T01:13:45.882Z,12.00
2022-11-14T01:16:15.113Z,13.90
2022-11-14T01:18:43.122Z,14.30
2022-11-14T01:21:12.872Z,18.33
2022-11-14T01:23:44.294Z,13.00
2022-11-14T01:26:13.485Z,19.20
2022-11-14T01:28:43.633Z,15.00
2022-11-14T01:31:14.394Z,12.00
2022-11-14T01:33:42.412Z,12.50
2022-11-14T01:36:10.986Z,14.37
2022-11-14T01:38:39.032Z,17.57
2022-11-14T01:41:07.583Z,13.20
2022-11-14T01:43:35.564Z,15.53
2022-11-14T01:46:04.791Z,13.93
2022-11-14T01:48:41.528Z,16.37
2022-11-14T01:51:20.049Z,14.80
2022-11-14T01:53:48.844Z,16.17
2022-11-14T01:56:18.010Z,13.50
2022-11-14T01:58:47.509Z,17.90
2022-11-14T02:01:15.800Z,16.40
2022-11-14T02:03:45.724Z,14.23
2022-11-14T02:06:15.400Z,14.60
2022-11-14T02:08:43.260Z,12.37
2022-11-14T02:11:12.212Z,12.57
2022-11-14T02:13:40.071Z,14.00
2022-11-14T02:20:03.637Z,16.00
2022-11-14T02:22:34.302Z,15.80
2022-11-14T02:25:02.227Z,15.93
2022-11-14T02:27:30.317Z,14.07
2022-11-14T02:30:05.505Z,15.53
2022-11-14T02:32:50.991Z,16.40
2022-11-14T02:35:21.623Z,20.20
2022-11-14T02:37:50.961Z,17.23
2022-11-14T02:40:19.460Z,19.80
2022-11-14T02:42:47.282Z,19.70
2022-11-14T02:45:15.181Z,17.97
2022-11-14T02:47:43.119Z,16.43
2022-11-14T02:50:11.195Z,20.93
2022-11-14T02:52:39.071Z,18.67
2022-11-14T02:55:09.030Z,16.67
2022-11-14T02:57:37.209Z,17.33
2022-11-14T03:00:09.941Z,17.37
2022-11-14T03:02:41.424Z,16.97
2022-11-14T03:05:09.711Z,18.37
2022-11-14T03:07:37.497Z,17.43
2022-11-14T03:10:06.473Z,17.80
2022-11-14T03:12:36.131Z,20.00
2022-11-14T03:15:03.996Z,18.50
2022-11-14T03:17:32.462Z,17.30
2022-11-14T03:20:00.240Z,20.63
2022-11-14T03:22:28.414Z,20.60
2022-11-14T03:24:56.379Z,20.87
2022-11-14T03:27:24.243Z,17.70
2022-11-14T03:29:54.011Z,18.10
2022-11-14T03:32:21.941Z,19.23
2022-11-14T03:34:50.282Z,16.10
2022-11-14T03:37:18.159Z,18.93
2022-11-14T03:39:45.977Z,19.20
2022-11-14T03:42:13.864Z,19.30
2022-11-14T03:44:42.431Z,18.40
2022-11-14T03:47:11.752Z,19.27
2022-11-14T03:49:40.190Z,18.53
2022-11-14T03:52:08.148Z,22.30
2022-11-14T03:54:36.463Z,19.17
2022-11-14T03:57:04.613Z,17.83
2022-11-14T03:59:32.963Z,16.00
2022-11-14T04:02:00.839Z,18.97
2022-11-14T04:04:30.563Z,22.97
2022-11-14T04:06:58.603Z,19.83
2022-11-14T04:09:26.640Z,18.43
2022-11-14T04:11:54.555Z,19.43
2022-11-14T04:14:22.900Z,17.80
2022-11-14T04:16:50.785Z,15.60
2022-11-14T04:19:19.351Z,17.07
2022-11-14T04:21:48.619Z,17.27
2022-11-14T04:24:16.964Z,15.70
2022-11-14T04:26:44.833Z,18.13
2022-11-14T04:29:12.850Z,16.60
2022-11-14T04:31:41.343Z,16.77
2022-11-14T04:34:09.300Z,19.60
2022-11-14T04:36:37.149Z,21.93
2022-11-14T04:39:06.676Z,19.27
2022-11-14T04:41:34.946Z,18.40
2022-11-14T04:44:02.932Z,18.70
2022-11-14T04:46:31.358Z,17.80
2022-11-14T04:48:59.276Z,17.10
2022-11-14T04:51:27.621Z,16.67
2022-11-14T04:53:55.314Z,17.67
2022-11-14T04:56:27.032Z,17.43
2022-11-14T04:58:54.883Z,18.13
2022-11-14T05:01:23.303Z,17.87
2022-11-14T05:03:51.187Z,18.67
2022-11-14T05:06:19.103Z,19.43
2022-11-14T05:08:48.446Z,19.20
2022-11-14T05:11:17.062Z,17.50
2022-11-14T05:13:46.528Z,17.90
2022-11-14T05:16:14.463Z,17.30
2022-11-14T05:18:46.858Z,18.53
2022-11-14T05:21:15.524Z,18.03
2022-11-14T05:23:43.420Z,18.30
2022-11-14T05:26:12.598Z,17.23
2022-11-14T05:28:40.533Z,17.50
2022-11-14T05:31:11.028Z,21.13
2022-11-14T05:33:38.715Z,19.70
2022-11-14T05:36:07.126Z,17.40
2022-11-14T05:38:35.019Z,18.63
2022-11-14T05:41:06.472Z,17.37
2022-11-14T05:43:34.848Z,19.37
2022-11-14T05:46:02.886Z,20.27
2022-11-14T05:48:33.010Z,19.73
2022-11-14T05:51:02.048Z,18.23
2022-11-14T05:53:31.401Z,17.60
2022-11-14T05:56:01.538Z,18.30
2022-11-14T05:58:29.759Z,17.90
2022-11-14T06:01:03.806Z,19.80
2022-11-14T06:03:35.012Z,17.43
2022-11-14T06:06:03.213Z,19.37
2022-11-14T06:08:31.738Z,18.13
2022-11-14T06:11:03.246Z,18.40
2022-11-14T06:13:31.148Z,17.10
2022-11-14T06:16:01.187Z,21.03
2022-11-14T06:18:30.014Z,21.47
2022-11-14T06:21:01.762Z,21.60
2022-11-14T06:23:30.226Z,19.80
2022-11-14T06:26:01.583Z,18.40
2022-11-14T06:28:30.867Z,21.00
2022-11-14T06:30:59.964Z,19.43
2022-11-14T06:33:28.290Z,19.03
2022-11-14T06:35:59.863Z,19.13
2022-11-14T06:38:29.156Z,19.90
2022-11-14T06:41:03.401Z,17.47
2022-11-14T06:43:34.053Z,19.50
2022-11-14T06:46:01.927Z,18.27
2022-11-14T06:48:30.481Z,23.70
2022-11-14T06:50:59.476Z,19.73
2022-11-14T06:53:29.625Z,21.70
2022-11-14T06:55:57.977Z,18.30
2022-11-14T06:58:27.942Z,21.60
2022-11-14T07:00:56.730Z,20.83
2022-11-14T07:03:24.791Z,19.50
2022-11-14T07:05:53.234Z,20.40
2022-11-14T07:08:29.950Z,18.27
2022-11-14T07:11:04.451Z,21.53
2022-11-14T07:13:32.434Z,18.03
2022-11-14T07:16:01.033Z,18.47
2022-11-14T07:18:31.295Z,18.60
2022-11-14T07:21:00.679Z,20.50
2022-11-14T07:23:28.444Z,17.93
2022-11-14T07:25:56.615Z,18.00
2022-11-14T07:28:25.708Z,20.17
2022-11-14T07:30:54.047Z,19.60
2022-11-14T07:33:21.969Z,21.17
2022-11-14T07:35:50.274Z,21.77
2022-11-14T07:38:18.348Z,20.70
2022-11-14T07:40:59.243Z,19.37
2022-11-14T07:43:29.617Z,19.37
2022-11-14T07:46:00.833Z,21.90
2022-11-14T07:48:29.264Z,20.83
2022-11-14T07:51:00.540Z,20.83
2022-11-14T07:53:28.545Z,19.47
2022-11-14T07:55:56.863Z,23.03
2022-11-14T07:58:25.061Z,21.67
2022-11-14T08:00:54.682Z,21.33
2022-11-14T08:03:25.383Z,20.80
2022-11-14T08:05:53.168Z,19.63
2022-11-14T08:08:20.897Z,21.20
2022-11-14T08:10:48.690Z,20.90
2022-11-14T08:13:33.414Z,21.27
2022-11-14T08:16:12.428Z,20.37
2022-11-14T08:18:41.260Z,22.03
2022-11-14T08:21:09.151Z,20.60
2022-11-14T08:23:36.958Z,22.80
2022-11-14T08:26:05.384Z,22.80
2022-11-14T08:28:33.594Z,22.67
2022-11-14T08:31:02.741Z,24.60
2022-11-14T08:33:31.923Z,21.90
2022-11-14T08:36:01.925Z,19.73
2022-11-14T08:38:30.099Z,22.13
2022-11-14T08:40:59.834Z,19.50
2022-11-14T08:43:28.212Z,21.90
2022-11-14T08:46:01.471Z,21.13
2022-11-14T08:48:32.787Z,21.43
2022-11-14T08:51:04.027Z,21.77
2022-11-14T08:53:32.179Z,22.17
2022-11-14T08:56:00.267Z,21.60
2022-11-14T08:58:30.871Z,19.83
2022-11-14T09:01:02.853Z,22.90
2022-11-14T09:03:32.737Z,25.00
2022-11-14T09:06:00.715Z,22.67
2022-11-14T09:08:29.800Z,21.73
2022-11-14T09:11:04.823Z,24.57
2022-11-14T09:13:34.088Z,23.03
2022-11-14T09:16:02.137Z,23.17
2022-11-14T09:18:32.705Z,21.13
2022-11-14T09:21:02.096Z,23.53
2022-11-14T09:23:30.471Z,22.50
2022-11-14T09:25:58.649Z,21.67
2022-11-14T09:28:26.676Z,21.43
2022-11-14T09:30:54.698Z,21.10
2022-11-14T09:33:23.012Z,23.17
2022-11-14T09:35:57.098Z,22.93
2022-11-14T09:38:25.044Z,22.83
2022-11-14T09:41:14.273Z,23.37
2022-11-14T09:43:49.352Z,20.13
2022-11-14T09:46:20.696Z,22.20
2022-11-14T09:48:49.187Z,24.07
2022-11-14T09:51:20.625Z,20.43
2022-11-14T09:53:51.268Z,21.03
2022-11-14T09:56:21.695Z,22.43
2022-11-14T09:58:49.983Z,21.00
2022-11-14T10:01:21.573Z,24.20
2022-11-14T10:03:52.158Z,20.20
2022-11-14T10:06:27.577Z,20.50
2022-11-14T10:09:22.183Z,24.03
2022-11-14T10:11:53.361Z,21.70
2022-11-14T10:14:39.713Z,20.77
2022-11-14T10:17:15.309Z,21.00
2022-11-14T10:19:45.414Z,19.90
2022-11-14T10:22:20.446Z,24.87
2022-11-14T10:25:02.734Z,21.00
2022-11-14T10:27:32.124Z,22.90
2022-11-14T10:30:09.505Z,22.70
2022-11-14T10:32:59.300Z,19.90
2022-11-14T10:35:34.977Z,21.37
2022-11-14T10:38:06.665Z,20.17
2022-11-14T10:40:38.020Z,20.40
2022-11-14T10:43:08.627Z,19.77
2022-11-14T10:45:37.864Z,21.00
2022-11-14T10:48:10.952Z,18.93
2022-11-14T10:50:44.165Z,20.30
2022-11-14T10:53:17.158Z,19.83
2022-11-14T10:56:03.160Z,18.80
2022-11-14T10:58:38.410Z,19.77
2022-11-14T11:01:35.004Z,21.00
2022-11-14T11:04:20.391Z,17.93
2022-11-14T11:06:49.320Z,20.67
2022-11-14T11:09:42.175Z,20.30
2022-11-14T11:12:17.149Z,17.80
2022-11-14T11:14:45.314Z,18.03
2022-11-14T11:17:21.762Z,17.10
2022-11-14T11:19:50.064Z,17.83
2022-11-14T11:22:26.600Z,17.33
2022-11-14T11:24:56.272Z,15.77
2022-11-14T11:27:26.654Z,21.47
2022-11-14T11:30:10.027Z,15.17
2022-11-14T11:32:37.880Z,18.33
2022-11-14T11:35:11.865Z,19.63
2022-11-14T11:37:42.945Z,15.33
2022-11-14T11:40:17.336Z,18.50
2022-11-14T11:43:36.633Z,18.47
2022-11-14T11:45:36.704Z,18.10
2022-11-14T11:48:09.593Z,25.90
2022-11-14T11:50:37.566Z,24.77
2022-11-14T11:53:11.383Z,23.60
2022-11-14T11:55:45.298Z,21.60
2022-11-14T11:58:15.386Z,21.73
2022-11-14T12:00:43.779Z,28.17
2022-11-14T12:03:13.181Z,22.40
2022-11-14T12:05:47.429Z,17.13
2022-11-14T12:08:21.292Z,27.37
2022-11-14T12:10:51.036Z,20.50
2022-11-14T12:13:44.781Z,19.17
2022-11-14T12:16:19.607Z,19.23
2022-11-14T12:19:32.997Z,18.90
2022-11-14T12:22:35.650Z,20.50
2022-11-14T12:25:28.861Z,18.60
2022-11-14T12:28:04.773Z,21.00
2022-11-14T12:30:32.732Z,17.93
2022-11-14T12:33:02.356Z,15.83
2022-11-14T12:35:30.858Z,18.47
2022-11-14T12:37:59.075Z,19.10
2022-11-14T12:40:28.941Z,20.17
2022-11-14T12:42:57.366Z,22.17
2022-11-14T12:46:08.051Z,14.37
2022-11-14T12:48:38.480Z,24.67
2022-11-14T12:51:08.052Z,24.77
2022-11-14T12:53:43.211Z,31.67
2022-11-14T12:56:40.786Z,21.90
2022-11-14T12:59:23.143Z,30.97
2022-11-14T13:02:00.493Z,33.50
2022-11-14T13:04:33.723Z,35.83
2022-11-14T13:07:32.732Z,36.63
2022-11-14T13:10:12.728Z,34.70
2022-11-14T13:12:58.673Z,35.77
2022-11-14T13:15:49.120Z,28.13
2022-11-14T13:18:40.959Z,28.97
2022-11-14T13:21:37.035Z,27.47
2022-11-14T13:24:07.826Z,22.80
2022-11-14T13:26:56.397Z,25.17
2022-11-14T13:30:03.083Z,25.97
2022-11-14T13:33:07.462Z,21.97
2022-11-14T13:35:45.853Z,20.70
2022-11-14T13:38:36.692Z,22.43
2022-11-14T13:41:20.141Z,24.80
2022-11-14T13:43:58.262Z,24.20
2022-11-14T13:46:34.136Z,21.00
2022-11-14T13:49:14.691Z,18.47
2022-11-14T13:51:44.404Z,27.83
2022-11-14T13:54:17.452Z,23.50
2022-11-14T13:56:55.691Z,21.10
2022-11-14T13:59:33.934Z,23.60
2022-11-14T14:02:21.219Z,18.70
2022-11-14T14:04:53.638Z,18.43
2022-11-14T14:07:25.434Z,19.83
2022-11-14T14:09:56.861Z,18.73
2022-11-14T14:12:35.571Z,19.07
2022-11-14T14:15:09.493Z,16.57
2022-11-14T14:17:44.144Z,19.10
2022-11-14T14:20:19.891Z,17.93
2022-11-14T14:22:56.980Z,17.40
2022-11-14T14:25:28.443Z,18.77
2022-11-14T14:28:04.904Z,25.17
2022-11-14T14:30:32.781Z,21.23
2022-11-14T14:33:13.496Z,18.40
2022-11-14T14:35:50.493Z,21.03
2022-11-14T14:38:25.660Z,21.50
2022-11-14T14:40:55.157Z,23.60
2022-11-14T14:43:28.569Z,22.23
2022-11-14T14:45:57.223Z,20.73
2022-11-14T14:48:26.254Z,20.60
2022-11-14T14:50:55.671Z,25.63
2022-11-14T14:53:26.436Z,19.47
2022-11-14T14:55:56.157Z,20.53
2022-11-14T14:58:28.252Z,19.93
2022-11-14T15:00:58.568Z,28.47
2022-11-14T15:03:27.467Z,25.80
2022-11-14T15:06:01.900Z,21.87
2022-11-14T15:08:31.897Z,26.70
2022-11-14T15:11:00.409Z,28.60
2022-11-14T15:13:29.483Z,35.40
2022-11-14T15:15:58.084Z,37.50
2022-11-14T15:18:27.423Z,33.47
2022-11-14T15:21:08.623Z,38.73
2022-11-14T15:23:38.107Z,37.37
2022-11-14T15:26:07.542Z,40.23
2022-11-14T15:28:35.381Z,41.13
2022-11-14T15:31:03.987Z,39.80
2022-11-14T15:33:32.990Z,43.83
2022-11-14T15:36:11.020Z,40.80
2022-11-14T15:38:44.736Z,38.97
2022-11-14T15:41:19.096Z,51.47
2022-11-14T15:43:53.045Z,60.00
2022-11-14T15:46:28.881Z,47.33
2022-11-14T15:48:56.956Z,48.47
2022-11-14T15:51:39.953Z,60.67
2022-11-14T15:54:20.437Z,52.53
2022-11-14T15:56:48.661Z,47.77
2022-11-14T15:59:16.578Z,44.87
2022-11-14T16:01:44.813Z,48.77
2022-11-14T16:04:15.000Z,43.30
2022-11-14T16:06:42.896Z,44.10
2022-11-14T16:09:15.587Z,44.27
2022-11-14T16:11:45.213Z,38.63
2022-11-14T16:14:13.562Z,44.77
2022-11-14T16:16:41.491Z,45.23
2022-11-14T16:19:11.251Z,44.17
2022-11-14T16:21:39.222Z,39.17
2022-11-14T16:24:08.056Z,37.83
2022-11-14T16:26:36.140Z,35.33
2022-11-14T16:29:05.556Z,39.67
2022-11-14T16:31:33.469Z,40.13
2022-11-14T16:34:01.781Z,29.27
2022-11-14T16:36:29.680Z,32.10
2022-11-14T16:38:59.109Z,27.63
2022-11-14T16:41:27.033Z,30.80
2022-11-14T16:44:13.628Z,25.57
2022-11-14T16:46:41.752Z,29.67
2022-11-14T16:49:10.506Z,30.10
2022-11-14T16:51:49.135Z,28.70
2022-11-14T16:54:18.224Z,29.13
2022-11-14T16:56:46.270Z,26.47
2022-11-14T16:59:17.559Z,30.83
2022-11-14T17:01:49.379Z,26.13
2022-11-14T17:04:17.341Z,26.73
2022-11-14T17:06:45.259Z,27.97
2022-11-14T17:09:13.819Z,23.93
2022-11-14T17:11:41.787Z,22.70
2022-11-14T17:14:10.129Z,25.47
2022-11-14T17:16:39.579Z,23.73
2022-11-14T17:19:08.682Z,21.43
2022-11-14T17:21:36.747Z,24.30
2022-11-14T17:24:05.496Z,25.93
2022-11-14T17:26:33.406Z,24.07
2022-11-14T17:29:01.277Z,23.07
2022-11-14T17:31:32.587Z,24.20
2022-11-14T17:34:05.994Z,22.20
2022-11-14T17:36:34.063Z,24.27
2022-11-14T17:39:02.037Z,24.40
2022-11-14T17:41:30.179Z,23.17
2022-11-14T17:44:01.836Z,22.90
2022-11-14T17:46:30.333Z,23.10
2022-11-14T17:48:58.945Z,19.30
2022-11-14T17:51:28.926Z,20.33
2022-11-14T17:53:56.832Z,22.87
2022-11-14T17:56:38.060Z,21.53
2022-11-14T17:59:09.356Z,21.37
2022-11-14T18:01:37.820Z,21.57
2022-11-14T18:04:06.702Z,19.17
2022-11-14T18:06:36.296Z,19.90
2022-11-14T18:09:06.195Z,20.00
2022-11-14T18:11:35.917Z,19.77
2022-11-14T18:14:03.840Z,23.03
2022-11-14T18:16:57.361Z,21.80
2022-11-14T18:19:19.943Z,21.43
2022-11-14T18:21:53.596Z,18.17
2022-11-14T18:24:23.665Z,19.27
2022-11-14T18:26:51.832Z,20.00
2022-11-14T18:29:20.319Z,18.50
2022-11-14T18:31:48.638Z,22.60
2022-11-14T18:34:17.086Z,20.10
2022-11-14T18:36:44.841Z,19.37
2022-11-14T18:39:14.094Z,21.03
2022-11-14T18:41:42.092Z,18.77
2022-11-14T18:44:10.057Z,22.83
2022-11-14T18:46:38.889Z,18.60
2022-11-14T18:49:06.839Z,20.90
2022-11-14T18:51:42.457Z,17.27
2022-11-14T18:54:13.281Z,20.43
2022-11-14T18:56:41.324Z,21.50
2022-11-14T18:59:09.350Z,19.30
2022-11-14T19:01:37.201Z,21.80
2022-11-14T19:04:06.280Z,21.80
2022-11-14T19:06:34.943Z,20.73
2022-11-14T19:09:10.629Z,20.50
2022-11-14T19:12:01.135Z,20.10
2022-11-14T19:14:32.462Z,18.73
2022-11-14T19:17:00.941Z,21.33
2022-11-14T19:19:29.270Z,21.00
2022-11-14T19:21:57.649Z,22.53
2022-11-14T19:24:25.752Z,22.83
2022-11-14T19:26:58.258Z,19.80
2022-11-14T19:29:26.322Z,19.13
2022-11-14T19:31:56.788Z,20.73
2022-11-14T19:34:24.830Z,20.50
2022-11-14T19:36:59.765Z,20.37
2022-11-14T19:39:28.639Z,25.20
2022-11-14T19:41:58.395Z,17.80
2022-11-14T19:44:26.778Z,21.77
2022-11-14T19:46:54.917Z,19.60
2022-11-14T19:49:23.466Z,19.07
2022-11-14T19:51:51.547Z,21.90
2022-11-14T19:54:19.839Z,19.20
2022-11-14T19:56:47.840Z,19.77
2022-11-14T19:59:21.589Z,16.00
2022-11-14T20:01:55.867Z,19.87
2022-11-14T20:04:24.065Z,18.33
2022-11-14T20:06:52.550Z,20.03
2022-11-14T20:09:20.738Z,17.70
2022-11-14T20:11:48.750Z,20.23
2022-11-14T20:14:18.508Z,20.03
2022-11-14T20:16:46.852Z,19.10
2022-11-14T20:19:17.488Z,20.57
2022-11-14T20:21:45.525Z,17.10
2022-11-14T20:24:15.783Z,17.53
2022-11-14T20:26:44.178Z,18.83
2022-11-14T20:29:12.753Z,18.83
2022-11-14T20:31:42.246Z,17.50
2022-11-14T20:34:10.838Z,18.10
2022-11-14T20:37:08.604Z,19.37
2022-11-14T20:39:26.985Z,18.57
2022-11-14T20:41:55.025Z,21.80
2022-11-14T20:44:22.966Z,17.30
2022-11-14T20:46:55.777Z,17.77
2022-11-14T20:49:24.040Z,19.23
2022-11-14T20:51:52.558Z,19.33
2022-11-14T20:54:20.624Z,17.63
2022-11-14T20:56:48.910Z,17.87
2022-11-14T20:59:17.266Z,17.53
2022-11-14T21:01:45.250Z,17.23
2022-11-14T21:04:14.832Z,18.47
2022-11-14T21:06:42.824Z,18.80
2022-11-14T21:09:10.990Z,17.80
2022-11-14T21:11:39.024Z,18.57
2022-11-14T21:14:09.443Z,16.00
2022-11-14T21:16:39.096Z,17.97
2022-11-14T21:19:07.476Z,16.83
2022-11-14T21:21:38.408Z,16.93
2022-11-14T21:24:07.132Z,17.53
2022-11-14T21:26:35.841Z,19.60
2022-11-14T21:29:05.364Z,19.90
2022-11-14T21:31:34.856Z,17.50
2022-11-14T21:34:03.672Z,18.57
2022-11-14T21:36:47.519Z,17.30
2022-11-14T21:39:17.714Z,15.87
2022-11-14T21:41:48.541Z,20.20
2022-11-14T21:44:18.128Z,18.23
2022-11-14T21:46:47.224Z,17.70
2022-11-14T21:49:15.369Z,15.10
2022-11-14T21:51:43.523Z,17.23
2022-11-14T21:54:13.599Z,20.30
2022-11-14T21:56:43.124Z,17.30
2022-11-14T21:59:15.294Z,15.53
2022-11-14T22:02:02.462Z,18.77
2022-11-14T22:04:31.464Z,16.20
2022-11-14T22:06:59.605Z,16.70
2022-11-14T22:09:28.631Z,18.53
2022-11-14T22:11:58.042Z,19.03
2022-11-14T22:14:26.053Z,18.13
2022-11-14T22:16:53.928Z,17.20
2022-11-14T22:19:22.301Z,22.50
2022-11-14T22:21:50.310Z,19.87
2022-11-14T22:24:18.655Z,18.20
2022-11-14T22:26:46.528Z,21.73
2022-11-14T22:29:16.523Z,17.70
2022-11-14T22:31:44.302Z,18.30
2022-11-14T22:34:12.697Z,17.83
2022-11-14T22:36:40.643Z,15.83
2022-11-14T22:39:08.556Z,17.87
2022-11-14T22:41:36.537Z,17.03
2022-11-14T22:44:04.846Z,16.20
2022-11-14T22:46:34.197Z,17.27
2022-11-14T22:49:03.774Z,19.43
2022-11-14T22:51:31.806Z,17.27
2022-11-14T22:54:00.105Z,17.60
2022-11-14T22:56:28.555Z,18.47
2022-11-14T22:58:56.366Z,16.77
2022-11-14T23:01:25.568Z,18.50
2022-11-14T23:03:58.610Z,17.40
2022-11-14T23:06:26.524Z,20.00
2022-11-14T23:08:54.808Z,17.23
2022-11-14T23:11:23.760Z,16.43
2022-11-14T23:13:52.376Z,17.27
2022-11-14T23:16:22.007Z,17.53
2022-11-14T23:18:49.984Z,17.20
2022-11-14T23:21:20.642Z,15.63
2022-11-14T23:23:52.971Z,18.90
2022-11-14T23:26:21.347Z,19.77
2022-11-14T23:28:49.252Z,16.73
2022-11-14T23:31:19.409Z,24.87
2022-11-14T23:33:47.550Z,16.33
2022-11-14T23:36:15.592Z,14.80
2022-11-14T23:38:44.995Z,17.30
2022-11-14T23:41:16.629Z,19.10
2022-11-14T23:43:44.702Z,17.03
2022-11-14T23:46:12.682Z,14.77
2022-11-14T23:48:40.609Z,18.43
2022-11-14T23:51:09.626Z,19.87
2022-11-14T23:53:37.472Z,18.93
2022-11-14T23:56:07.238Z,17.20
2022-11-14T23:58:35.281Z,19.73
